Terminal Aerodrome Forecast
Issued by NWS Lake Charles, LA

Home | Current Version | Previous Version | Text Only | Print | Product List | Glossary On
Versions: 1 2 3 4 5 6 7 8 9 10 11 12 13 14 15 16 17 18 19 20
000
FTUS44 KLCH 172300
TAFBPT
TAF
KBPT 172331Z 1800/1824 06010KT P6SM SCT025 BKN120
     FM180100 05006KT P6SM BKN060 BKN090
     FM181400 02010G15KT P6SM BKN029
     FM181800 01008KT P6SM SCT035=

USA.gov is the U.S. government's official web portal to all federal, state and local government web resources and services.